Time;durP1;ratioP1;P1;durP2;ratioP2;P2;SDS_P1;SDS_P2;PMS_P1;PMS_P2;Temp;Humidity;BMP_temperature;BMP_pressure;BME280_temperature;BME280_humidity;BME280_pressure;Samples;Min_cycle;Max_cycle;Signal;HPM_P1;HPM_P2
2022/06/12 00:00:44;;;;;;;;;;;15.50;99.90;;;;;;5110380;27;19923;-79
2022/06/12 00:03:11;;;;;;;;;;;15.50;99.90;;;;;;5110210;28;19944;-79
2022/06/12 00:05:40;;;;;;;;;;;15.50;99.90;;;;;;5108505;28;20417;-79
2022/06/12 00:08:06;;;;;;;;;;;15.40;99.90;;;;;;5109412;28;19928;-79
2022/06/12 00:10:32;;;;;;;;;;;15.40;99.90;;;;;;5108778;28;20414;-79
2022/06/12 00:12:58;;;;;;;;;;;15.40;99.90;;;;;;5122733;27;19931;-79
2022/06/12 00:15:25;;;;;;;;;;;15.30;99.90;;;;;;5115089;28;19924;-79
2022/06/12 00:17:52;;;;;;;;;;;15.30;99.90;;;;;;5117062;28;19935;-79
2022/06/12 00:20:18;;;;;;;;;;;15.30;99.90;;;;;;5109858;28;19930;-79
2022/06/12 00:22:45;;;;;;;;;;;15.30;99.90;;;;;;5109915;28;19984;-79
2022/06/12 00:25:13;;;;;;;;;;;15.20;99.90;;;;;;5112279;28;19927;-79
2022/06/12 00:27:39;;;;;;;;;;;15.20;99.90;;;;;;5113215;28;19924;-79
2022/06/12 00:30:06;;;;;;;;;;;15.20;99.90;;;;;;5112817;28;19931;-79
2022/06/12 00:32:31;;;;;;;;;;;15.20;99.90;;;;;;5119169;27;19923;-79
2022/06/12 00:34:57;;;;;;;;;;;15.10;99.90;;;;;;5120485;27;19923;-79
2022/06/12 00:37:24;;;;;;;;;;;15.10;99.90;;;;;;5113854;28;19924;-79
2022/06/12 00:39:50;;;;;;;;;;;15.00;99.90;;;;;;5123096;27;19975;-79
2022/06/12 00:42:23;;;;;;;;;;;15.00;99.90;;;;;;5121800;27;19966;-79
2022/06/12 00:44:48;;;;;;;;;;;14.90;99.90;;;;;;5111959;27;20014;-79
2022/06/12 00:47:14;;;;;;;;;;;14.90;99.90;;;;;;5113908;28;20014;-78
2022/06/12 00:49:40;;;;;;;;;;;14.90;99.90;;;;;;5131587;27;19928;-78
2022/06/12 00:52:12;;;;;;;;;;;14.90;99.90;;;;;;5124307;27;19931;-79
2022/06/12 00:54:39;;;;;;;;;;;14.80;99.90;;;;;;5126875;27;19990;-79
2022/06/12 00:57:05;;;;;;;;;;;14.80;99.90;;;;;;5122399;27;20429;-78
2022/06/12 00:59:31;;;;;;;;;;;14.80;99.90;;;;;;5117632;27;19924;-79
2022/06/12 01:01:57;;;;;;;;;;;14.80;99.90;;;;;;5112421;28;19927;-79
2022/06/12 01:07:09;;;;;;;;;;;14.70;99.90;;;;;;5129473;27;19924;-79
2022/06/12 01:09:38;;;;;;;;;;;14.70;99.90;;;;;;5125365;27;19946;-79
2022/06/12 01:12:05;;;;;;;;;;;14.70;99.90;;;;;;5131617;27;19923;-79
2022/06/12 01:14:35;;;;;;;;;;;14.60;99.90;;;;;;5130030;27;19968;-79
2022/06/12 01:17:01;;;;;;;;;;;14.60;99.90;;;;;;5120627;27;20011;-78
2022/06/12 01:19:34;;;;;;;;;;;14.50;99.90;;;;;;5123214;27;20346;-79
2022/06/12 01:22:18;;;;;;;;;;;14.50;99.90;;;;;;5129072;27;19969;-79
2022/06/12 01:24:50;;;;;;;;;;;14.50;99.90;;;;;;5111840;28;19947;-79
2022/06/12 01:27:34;;;;;;;;;;;14.50;99.90;;;;;;5132042;27;19924;-79
2022/06/12 01:30:03;;;;;;;;;;;14.50;99.90;;;;;;5118751;27;19924;-78
2022/06/12 01:32:31;;;;;;;;;;;14.40;99.90;;;;;;5131992;27;19931;-79
2022/06/12 01:34:59;;;;;;;;;;;14.40;99.90;;;;;;5132274;27;19923;-79
2022/06/12 01:37:28;;;;;;;;;;;14.40;99.90;;;;;;5132337;27;19927;-79
2022/06/12 01:39:59;;;;;;;;;;;14.40;99.90;;;;;;5132518;27;19927;-78
2022/06/12 01:42:25;;;;;;;;;;;14.30;99.90;;;;;;5131814;27;20406;-78
2022/06/12 01:44:51;;;;;;;;;;;14.30;99.90;;;;;;5114784;27;20011;-79
2022/06/12 01:47:16;;;;;;;;;;;14.30;99.90;;;;;;5117189;27;21282;-78
2022/06/12 01:49:52;;;;;;;;;;;14.30;99.90;;;;;;5132144;27;19934;-79
2022/06/12 01:52:18;;;;;;;;;;;14.30;99.90;;;;;;5131757;27;19927;-79
2022/06/12 01:54:51;;;;;;;;;;;14.30;99.90;;;;;;5114989;27;20377;-79
2022/06/12 01:57:20;;;;;;;;;;;14.30;99.90;;;;;;5131400;27;19923;-78
2022/06/12 01:59:51;;;;;;;;;;;14.30;99.90;;;;;;5131717;27;19923;-79
2022/06/12 02:02:20;;;;;;;;;;;14.30;99.90;;;;;;5131789;27;19973;-79
2022/06/12 02:04:54;;;;;;;;;;;14.30;99.90;;;;;;5131192;27;20018;-79
2022/06/12 02:07:26;;;;;;;;;;;14.30;99.90;;;;;;5132941;27;19924;-79
2022/06/12 02:10:04;;;;;;;;;;;14.30;99.90;;;;;;5131542;27;19924;-79
2022/06/12 02:15:20;;;;;;;;;;;14.20;99.90;;;;;;5131124;27;21113;-79
2022/06/12 02:17:54;;;;;;;;;;;14.20;99.90;;;;;;5132448;27;19927;-79
2022/06/12 02:20:23;;;;;;;;;;;14.20;99.90;;;;;;5110598;28;19924;-78
2022/06/12 02:22:49;;;;;;;;;;;14.20;99.90;;;;;;5118637;27;19946;-79
2022/06/12 02:25:27;;;;;;;;;;;14.20;99.90;;;;;;5110969;28;19924;-79
2022/06/12 02:28:06;;;;;;;;;;;14.20;99.90;;;;;;5110504;28;19961;-79
2022/06/12 02:30:35;;;;;;;;;;;14.20;99.90;;;;;;5117164;27;19991;-79
2022/06/12 02:33:03;;;;;;;;;;;14.20;99.90;;;;;;5131119;27;19923;-79
2022/06/12 02:35:47;;;;;;;;;;;14.10;99.90;;;;;;5118653;27;19971;-79
2022/06/12 02:38:16;;;;;;;;;;;14.10;99.90;;;;;;5111543;28;19927;-78
2022/06/12 02:40:46;;;;;;;;;;;14.10;99.90;;;;;;5111705;28;20401;-79
2022/06/12 02:43:18;;;;;;;;;;;14.10;99.90;;;;;;5110392;28;19935;-79
2022/06/12 02:45:49;;;;;;;;;;;14.10;99.90;;;;;;5110576;28;20378;-79
2022/06/12 02:48:15;;;;;;;;;;;14.00;99.90;;;;;;5124194;27;19928;-78
2022/06/12 02:50:48;;;;;;;;;;;14.10;99.90;;;;;;5110300;28;19988;-79
2022/06/12 02:53:13;;;;;;;;;;;14.00;99.90;;;;;;5096967;27;19931;-79
2022/06/12 02:55:44;;;;;;;;;;;14.00;99.90;;;;;;5121454;27;19923;-79
2022/06/12 02:58:10;;;;;;;;;;;14.00;99.90;;;;;;5126913;27;19994;-79
2022/06/12 03:00:41;;;;;;;;;;;14.00;99.90;;;;;;5122179;27;19978;-79
2022/06/12 03:03:10;;;;;;;;;;;14.00;99.90;;;;;;5125710;27;19924;-79
2022/06/12 03:05:37;;;;;;;;;;;14.00;99.90;;;;;;5118192;27;20349;-79
2022/06/12 03:08:06;;;;;;;;;;;13.90;99.90;;;;;;5130184;27;19923;-79
2022/06/12 03:10:43;;;;;;;;;;;13.90;99.90;;;;;;5125129;27;19928;-79
2022/06/12 03:13:10;;;;;;;;;;;13.90;99.90;;;;;;5110137;28;20353;-79
2022/06/12 03:15:41;;;;;;;;;;;13.80;99.90;;;;;;5109911;28;19924;-79
2022/06/12 03:18:08;;;;;;;;;;;13.90;99.90;;;;;;5110765;28;20310;-79
2022/06/12 03:20:40;;;;;;;;;;;13.80;99.90;;;;;;5124909;27;19924;-79
2022/06/12 03:23:16;;;;;;;;;;;13.80;99.90;;;;;;5116635;27;19982;-78
2022/06/12 03:25:52;;;;;;;;;;;13.80;99.90;;;;;;5110326;28;19977;-79
2022/06/12 03:28:24;;;;;;;;;;;13.80;99.90;;;;;;5121049;27;20390;-79
2022/06/12 03:30:53;;;;;;;;;;;13.70;99.90;;;;;;5109983;27;19923;-78
2022/06/12 03:33:40;;;;;;;;;;;13.70;99.90;;;;;;5125494;27;19977;-79
2022/06/12 03:36:15;;;;;;;;;;;13.70;99.90;;;;;;5119581;27;20382;-79
2022/06/12 03:38:57;;;;;;;;;;;13.70;99.90;;;;;;5123184;27;19923;-79
2022/06/12 03:41:27;;;;;;;;;;;13.70;99.90;;;;;;5116871;27;20407;-78
2022/06/12 03:44:04;;;;;;;;;;;13.70;99.90;;;;;;5129415;27;19963;-79
2022/06/12 03:46:38;;;;;;;;;;;13.70;99.90;;;;;;5130919;27;19930;-78
2022/06/12 03:49:18;;;;;;;;;;;13.70;99.90;;;;;;5122359;27;20378;-79
2022/06/12 03:51:51;;;;;;;;;;;13.70;99.90;;;;;;5129716;27;20428;-79
2022/06/12 03:54:17;;;;;;;;;;;13.70;99.90;;;;;;5129059;27;19983;-78
2022/06/12 03:59:42;;;;;;;;;;;13.70;99.90;;;;;;5128216;27;20256;-79
2022/06/12 04:02:11;;;;;;;;;;;13.70;99.90;;;;;;5111948;27;19923;-78
2022/06/12 04:04:38;;;;;;;;;;;13.70;99.90;;;;;;5130285;27;20008;-79
2022/06/12 04:07:04;;;;;;;;;;;13.70;99.90;;;;;;5122485;27;20311;-79
2022/06/12 04:09:32;;;;;;;;;;;13.70;99.90;;;;;;5121338;27;19931;-79
2022/06/12 04:12:03;;;;;;;;;;;13.70;99.90;;;;;;5123051;27;19923;-78
2022/06/12 04:14:34;;;;;;;;;;;13.80;99.90;;;;;;5129192;27;19931;-78
2022/06/12 04:17:00;;;;;;;;;;;13.80;99.90;;;;;;5130371;27;19931;-78
2022/06/12 04:19:27;;;;;;;;;;;13.80;99.90;;;;;;5129706;27;20341;-78
2022/06/12 04:22:00;;;;;;;;;;;13.80;99.90;;;;;;5129132;28;20015;-79
2022/06/12 04:24:34;;;;;;;;;;;13.80;99.90;;;;;;5130247;27;19924;-79
2022/06/12 04:27:20;;;;;;;;;;;13.90;99.90;;;;;;5130199;27;19924;-78
2022/06/12 04:29:51;;;;;;;;;;;13.90;99.90;;;;;;5116478;27;19927;-78
2022/06/12 04:32:16;;;;;;;;;;;14.00;99.90;;;;;;5112183;28;19924;-79
2022/06/12 04:34:42;;;;;;;;;;;14.00;99.90;;;;;;5112071;27;19927;-78
2022/06/12 04:37:19;;;;;;;;;;;14.00;99.90;;;;;;5129221;27;19935;-79
2022/06/12 04:39:46;;;;;;;;;;;14.10;99.90;;;;;;5126081;27;19923;-79
2022/06/12 04:42:13;;;;;;;;;;;14.10;99.90;;;;;;5126982;27;20323;-79
2022/06/12 04:44:38;;;;;;;;;;;14.10;99.90;;;;;;5128978;27;20415;-78
2022/06/12 04:47:04;;;;;;;;;;;14.10;99.90;;;;;;5121202;27;19923;-79
2022/06/12 04:49:32;;;;;;;;;;;14.20;99.90;;;;;;5123375;27;19923;-79
2022/06/12 04:51:59;;;;;;;;;;;14.20;99.90;;;;;;5130671;27;19923;-79
2022/06/12 04:54:25;;;;;;;;;;;14.20;99.90;;;;;;5128672;27;19923;-78
2022/06/12 04:56:51;;;;;;;;;;;14.30;99.90;;;;;;5129092;27;20035;-78
2022/06/12 04:59:17;;;;;;;;;;;14.40;99.90;;;;;;5128869;27;20453;-79
2022/06/12 05:01:43;;;;;;;;;;;14.40;99.90;;;;;;5126234;27;19977;-79
2022/06/12 05:04:09;;;;;;;;;;;14.50;99.90;;;;;;5117455;27;20369;-78
2022/06/12 05:06:35;;;;;;;;;;;14.60;99.90;;;;;;5128763;27;19978;-79
2022/06/12 05:09:01;;;;;;;;;;;14.60;99.90;;;;;;5130339;27;19930;-79
2022/06/12 05:11:26;;;;;;;;;;;14.60;99.90;;;;;;5132209;27;19930;-78
2022/06/12 05:13:52;;;;;;;;;;;14.60;99.90;;;;;;5132632;27;19924;-79
2022/06/12 05:16:26;;;;;;;;;;;14.60;99.90;;;;;;5132994;27;20335;-79
2022/06/12 05:18:52;;;;;;;;;;;14.60;99.90;;;;;;5133628;27;20022;-79
2022/06/12 05:21:18;;;;;;;;;;;14.80;99.90;;;;;;5132968;27;20010;-79
2022/06/12 05:23:43;;;;;;;;;;;14.90;99.90;;;;;;5132140;27;20369;-79
2022/06/12 05:26:09;;;;;;;;;;;15.00;99.90;;;;;;5132314;27;19966;-79
2022/06/12 05:28:35;;;;;;;;;;;15.00;99.90;;;;;;5132313;27;19931;-79
2022/06/12 05:31:00;;;;;;;;;;;15.10;99.90;;;;;;5133247;27;19923;-79
2022/06/12 05:33:26;;;;;;;;;;;15.10;99.90;;;;;;5132124;27;19923;-78
2022/06/12 05:35:51;;;;;;;;;;;15.10;99.90;;;;;;5132253;27;19930;-79
2022/06/12 05:38:17;;;;;;;;;;;15.10;99.90;;;;;;5133704;27;19923;-79
2022/06/12 05:40:42;;;;;;;;;;;15.20;99.90;;;;;;5124112;27;20317;-79
2022/06/12 05:43:08;;;;;;;;;;;15.30;99.90;;;;;;5131950;27;19935;-78
2022/06/12 05:45:34;;;;;;;;;;;15.30;99.90;;;;;;5132348;27;20286;-79
2022/06/12 05:48:03;;;;;;;;;;;15.30;99.90;;;;;;5130148;27;19945;-79
2022/06/12 05:50:30;;;;;;;;;;;15.30;99.90;;;;;;5119871;27;20720;-79
2022/06/12 05:52:57;;;;;;;;;;;15.40;99.90;;;;;;5132447;27;19931;-78
2022/06/12 05:55:23;;;;;;;;;;;15.40;99.90;;;;;;5131290;27;20381;-79
2022/06/12 05:57:49;;;;;;;;;;;15.40;99.90;;;;;;5132041;27;20212;-79
2022/06/12 06:00:23;;;;;;;;;;;15.50;99.90;;;;;;5131927;27;20539;-79
2022/06/12 06:02:48;;;;;;;;;;;15.50;99.90;;;;;;5131931;27;20356;-79
2022/06/12 06:05:14;;;;;;;;;;;15.50;99.90;;;;;;5131434;27;20015;-78
2022/06/12 06:07:40;;;;;;;;;;;15.60;99.90;;;;;;5131392;27;19927;-79
2022/06/12 06:10:08;;;;;;;;;;;15.60;99.90;;;;;;5131680;27;19962;-79
2022/06/12 06:12:33;;;;;;;;;;;15.60;99.90;;;;;;5131637;27;19931;-79
2022/06/12 06:14:59;;;;;;;;;;;15.70;99.90;;;;;;5131383;27;19967;-78
2022/06/12 06:17:24;;;;;;;;;;;15.70;99.90;;;;;;5132596;27;20027;-79
2022/06/12 06:19:50;;;;;;;;;;;15.70;99.90;;;;;;5113894;27;20288;-78
2022/06/12 06:22:18;;;;;;;;;;;15.80;99.90;;;;;;5130554;27;19950;-78
2022/06/12 06:24:46;;;;;;;;;;;15.80;99.90;;;;;;5131054;27;19928;-79
2022/06/12 06:27:13;;;;;;;;;;;15.90;99.90;;;;;;5131164;27;19954;-79
2022/06/12 06:29:39;;;;;;;;;;;15.90;99.90;;;;;;5122384;27;19950;-78
2022/06/12 06:32:07;;;;;;;;;;;15.90;99.90;;;;;;5126373;27;20393;-78
2022/06/12 06:34:36;;;;;;;;;;;16.00;99.90;;;;;;5131068;27;19923;-78
2022/06/12 06:37:02;;;;;;;;;;;16.00;99.90;;;;;;5114076;27;19927;-78
2022/06/12 06:39:28;;;;;;;;;;;16.10;99.90;;;;;;5114346;27;20300;-78
2022/06/12 06:41:54;;;;;;;;;;;16.20;99.90;;;;;;5126321;27;19923;-78
2022/06/12 06:47:04;;;;;;;;;;;16.30;99.90;;;;;;5118815;27;19923;-79
2022/06/12 06:49:29;;;;;;;;;;;16.50;99.90;;;;;;5116499;27;20057;-78
2022/06/12 06:51:55;;;;;;;;;;;16.50;99.90;;;;;;5096172;28;19923;-78
2022/06/12 06:54:21;;;;;;;;;;;16.60;99.90;;;;;;5122008;27;20429;-78
2022/06/12 06:56:46;;;;;;;;;;;16.70;99.90;;;;;;5130932;27;19997;-78
2022/06/12 06:59:12;;;;;;;;;;;16.80;99.90;;;;;;5131531;27;20341;-78
2022/06/12 07:01:37;;;;;;;;;;;16.90;99.90;;;;;;5116024;27;19928;-78
2022/06/12 07:04:03;;;;;;;;;;;17.00;99.90;;;;;;5130936;27;19923;-78
2022/06/12 07:06:29;;;;;;;;;;;17.10;99.90;;;;;;5130434;27;19927;-78
2022/06/12 07:08:54;;;;;;;;;;;17.20;99.90;;;;;;5130226;27;19931;-78
2022/06/12 07:11:20;;;;;;;;;;;17.30;99.90;;;;;;5130728;27;19927;-78
2022/06/12 07:13:46;;;;;;;;;;;17.30;99.90;;;;;;5130228;27;19974;-78
2022/06/12 07:16:11;;;;;;;;;;;17.40;99.90;;;;;;5122699;27;20320;-79
2022/06/12 07:18:37;;;;;;;;;;;17.40;99.90;;;;;;5124229;27;19931;-80
2022/06/12 07:21:03;;;;;;;;;;;17.50;99.90;;;;;;5113726;27;19923;-79
2022/06/12 07:23:30;;;;;;;;;;;17.50;99.90;;;;;;5109103;28;19924;-79
2022/06/12 07:25:57;;;;;;;;;;;17.60;99.90;;;;;;5113608;27;19923;-78
2022/06/12 07:28:23;;;;;;;;;;;17.60;99.90;;;;;;5112566;27;19935;-79
2022/06/12 07:30:50;;;;;;;;;;;17.60;99.90;;;;;;5114333;27;19923;-79
2022/06/12 07:33:15;;;;;;;;;;;17.70;99.90;;;;;;5108607;28;19924;-78
2022/06/12 07:35:42;;;;;;;;;;;17.90;99.90;;;;;;5090955;28;19927;-79
2022/06/12 07:38:09;;;;;;;;;;;18.10;99.90;;;;;;5108083;28;19924;-79
2022/06/12 07:40:40;;;;;;;;;;;18.20;99.90;;;;;;5109381;28;20014;-79
2022/06/12 07:43:07;;;;;;;;;;;18.20;99.90;;;;;;5111320;27;20000;-79
2022/06/12 07:45:32;;;;;;;;;;;18.20;99.90;;;;;;5109565;28;20037;-79
2022/06/12 07:47:58;;;;;;;;;;;18.20;99.90;;;;;;5111525;27;20425;-78
2022/06/12 07:50:23;;;;;;;;;;;18.30;99.90;;;;;;5110221;27;19932;-79
2022/06/12 07:52:49;;;;;;;;;;;18.40;99.90;;;;;;5113417;27;20021;-79
2022/06/12 07:55:16;;;;;;;;;;;18.40;99.90;;;;;;5110338;27;19955;-79
2022/06/12 07:57:41;;;;;;;;;;;18.50;99.90;;;;;;5107457;28;19928;-79
2022/06/12 08:00:07;;;;;;;;;;;18.60;99.90;;;;;;5090060;28;20783;-78
2022/06/12 08:02:33;;;;;;;;;;;18.80;99.90;;;;;;5110648;27;19932;-79
2022/06/12 08:04:58;;;;;;;;;;;18.80;99.90;;;;;;5111792;27;19928;-79
2022/06/12 08:07:24;;;;;;;;;;;18.90;99.90;;;;;;5111736;28;19992;-79
2022/06/12 08:09:49;;;;;;;;;;;18.90;99.90;;;;;;5107572;28;19927;-79
2022/06/12 08:12:15;;;;;;;;;;;19.00;99.90;;;;;;5096582;28;19938;-79
2022/06/12 08:14:41;;;;;;;;;;;19.10;99.90;;;;;;5112647;28;19924;-79
2022/06/12 08:17:06;;;;;;;;;;;19.10;99.90;;;;;;5109820;28;19923;-79
2022/06/12 08:22:17;;;;;;;;;;;19.20;99.90;;;;;;5110602;28;19969;-79
2022/06/12 08:24:42;;;;;;;;;;;19.30;99.90;;;;;;5110839;28;19924;-79
2022/06/12 08:27:08;;;;;;;;;;;19.30;99.90;;;;;;5108295;28;19924;-80
2022/06/12 08:29:34;;;;;;;;;;;19.30;99.90;;;;;;5112536;28;19931;-77
2022/06/12 08:32:01;;;;;;;;;;;19.30;99.90;;;;;;5112140;28;19992;-78
2022/06/12 08:34:29;;;;;;;;;;;19.30;99.90;;;;;;5114107;27;19924;-79
2022/06/12 08:36:58;;;;;;;;;;;19.50;99.90;;;;;;5122418;28;20014;-79
2022/06/12 08:39:24;;;;;;;;;;;19.60;99.90;;;;;;5121575;28;19962;-79
2022/06/12 08:41:50;;;;;;;;;;;19.70;99.90;;;;;;5111755;28;19970;-78
2022/06/12 08:44:27;;;;;;;;;;;19.90;99.90;;;;;;5129188;27;19969;-79
2022/06/12 08:47:12;;;;;;;;;;;20.00;99.90;;;;;;5113624;28;19930;-79
2022/06/12 08:49:47;;;;;;;;;;;20.00;99.90;;;;;;5124178;27;20501;-79
2022/06/12 08:52:26;;;;;;;;;;;20.00;99.90;;;;;;5133236;27;19924;-79
2022/06/12 08:54:57;;;;;;;;;;;20.00;99.90;;;;;;5134193;27;20432;-79
2022/06/12 08:57:26;;;;;;;;;;;20.20;99.90;;;;;;5132842;27;19924;-79
2022/06/12 09:00:00;;;;;;;;;;;20.40;99.90;;;;;;5132624;27;20389;-79
2022/06/12 09:02:29;;;;;;;;;;;20.60;99.90;;;;;;5110641;27;19923;-79
2022/06/12 09:04:55;;;;;;;;;;;20.90;99.90;;;;;;5129484;27;19927;-79
2022/06/12 09:07:44;;;;;;;;;;;21.00;99.90;;;;;;5119878;27;20010;-79
2022/06/12 09:10:17;;;;;;;;;;;21.10;99.90;;;;;;5131714;27;19927;-79
2022/06/12 09:12:51;;;;;;;;;;;21.10;99.90;;;;;;5131671;27;19929;-78
2022/06/12 09:15:32;;;;;;;;;;;21.20;99.90;;;;;;5113109;27;20381;-78
2022/06/12 09:18:20;;;;;;;;;;;21.40;99.90;;;;;;5127876;27;19988;-78
2022/06/12 09:21:06;;;;;;;;;;;21.50;99.90;;;;;;5131123;27;19930;-79
2022/06/12 09:23:36;;;;;;;;;;;21.40;99.90;;;;;;5111657;27;19997;-78
2022/06/12 09:26:07;;;;;;;;;;;21.20;99.90;;;;;;5115520;27;19927;-78
2022/06/12 09:28:33;;;;;;;;;;;21.10;99.90;;;;;;5112857;27;19924;-78
2022/06/12 09:31:08;;;;;;;;;;;21.20;99.90;;;;;;5122177;27;19931;-78
2022/06/12 09:33:36;;;;;;;;;;;21.40;99.90;;;;;;5127483;27;20357;-79
2022/06/12 09:36:08;;;;;;;;;;;21.40;99.90;;;;;;5124903;27;19923;-78
2022/06/12 09:38:46;;;;;;;;;;;21.40;99.90;;;;;;5124439;27;20001;-78
2022/06/12 09:41:18;;;;;;;;;;;21.30;99.90;;;;;;5125241;27;19923;-78
2022/06/12 09:43:50;;;;;;;;;;;21.10;99.90;;;;;;5119851;27;20381;-78
2022/06/12 09:46:24;;;;;;;;;;;21.00;99.90;;;;;;5129029;27;19927;-79
2022/06/12 09:49:13;;;;;;;;;;;20.90;99.90;;;;;;5119128;27;19970;-79
2022/06/12 09:52:02;;;;;;;;;;;20.90;99.90;;;;;;5113815;27;19927;-79
2022/06/12 09:54:33;;;;;;;;;;;20.80;99.90;;;;;;5131897;27;20408;-79
2022/06/12 09:57:05;;;;;;;;;;;20.60;99.90;;;;;;5129309;27;19924;-79
2022/06/12 09:59:30;;;;;;;;;;;20.50;99.90;;;;;;5126611;27;19924;-77
2022/06/12 10:01:59;;;;;;;;;;;20.30;99.90;;;;;;5129733;27;20382;-78
2022/06/12 10:04:38;;;;;;;;;;;20.20;99.90;;;;;;5127603;27;20383;-78
2022/06/12 10:07:27;;;;;;;;;;;20.20;99.90;;;;;;5125763;27;20006;-78
2022/06/12 10:09:58;;;;;;;;;;;20.20;99.90;;;;;;5129039;27;20358;-78
2022/06/12 10:12:36;;;;;;;;;;;20.20;99.90;;;;;;5119825;27;19930;-78
2022/06/12 10:15:08;;;;;;;;;;;20.20;99.90;;;;;;5131208;27;19930;-78
2022/06/12 10:17:39;;;;;;;;;;;20.50;99.90;;;;;;5120329;27;19927;-77
2022/06/12 10:20:13;;;;;;;;;;;21.10;99.90;;;;;;5112819;27;19934;-77
2022/06/12 10:22:41;;;;;;;;;;;21.70;99.90;;;;;;5114981;27;19965;-77
2022/06/12 10:25:08;;;;;;;;;;;22.20;99.90;;;;;;5111098;28;19924;-78
2022/06/12 10:27:42;;;;;;;;;;;22.60;99.90;;;;;;5116864;27;20405;-78
2022/06/12 10:30:21;;;;;;;;;;;23.10;99.60;;;;;;5111991;27;19924;-78
2022/06/12 10:32:49;;;;;;;;;;;23.10;97.40;;;;;;5117312;27;19924;-78
2022/06/12 10:35:16;;;;;;;;;;;23.00;97.80;;;;;;5093689;28;20054;-78
2022/06/12 10:37:41;;;;;;;;;;;22.90;97.10;;;;;;5116963;27;19934;-78
2022/06/12 10:40:21;;;;;;;;;;;22.70;96.30;;;;;;5110391;27;19931;-78
2022/06/12 10:42:55;;;;;;;;;;;22.70;96.10;;;;;;5128489;27;20389;-77
2022/06/12 10:45:26;;;;;;;;;;;22.90;94.80;;;;;;5131104;27;20393;-78
2022/06/12 10:47:53;;;;;;;;;;;23.30;95.00;;;;;;5105885;27;20021;-78
2022/06/12 10:50:20;;;;;;;;;;;23.60;93.50;;;;;;5131962;27;19934;-78
2022/06/12 10:52:50;;;;;;;;;;;23.70;93.60;;;;;;5113936;27;19984;-78
2022/06/12 10:55:18;;;;;;;;;;;23.70;92.40;;;;;;5129078;27;19923;-79
2022/06/12 10:57:54;;;;;;;;;;;23.80;91.30;;;;;;5131393;27;19979;-78
2022/06/12 11:00:23;;;;;;;;;;;24.00;89.80;;;;;;5131686;27;19931;-78
2022/06/12 11:02:59;;;;;;;;;;;24.10;88.50;;;;;;5122316;27;19924;-79
2022/06/12 11:05:40;;;;;;;;;;;24.40;89.90;;;;;;5126460;27;19974;-78
2022/06/12 11:08:13;;;;;;;;;;;24.70;85.70;;;;;;5130862;27;19974;-79
2022/06/12 11:10:53;;;;;;;;;;;24.60;81.60;;;;;;5131489;27;20682;-78
2022/06/12 11:13:33;;;;;;;;;;;24.70;79.80;;;;;;5130208;27;20026;-79
2022/06/12 11:16:01;;;;;;;;;;;24.50;74.70;;;;;;5125794;27;20381;-78
2022/06/12 11:18:30;;;;;;;;;;;24.30;80.30;;;;;;5121693;27;19924;-79
2022/06/12 11:20:59;;;;;;;;;;;24.30;75.80;;;;;;5130062;27;19924;-78
2022/06/12 11:23:43;;;;;;;;;;;24.30;76.90;;;;;;5131489;27;19928;-79
2022/06/12 11:26:20;;;;;;;;;;;24.50;76.80;;;;;;5115063;27;19930;-78
2022/06/12 11:29:10;;;;;;;;;;;24.70;74.80;;;;;;5130139;27;19923;-78
2022/06/12 11:31:55;;;;;;;;;;;24.80;75.10;;;;;;5117366;27;19973;-78
2022/06/12 11:34:39;;;;;;;;;;;24.80;73.60;;;;;;5131179;27;19923;-79
2022/06/12 11:37:04;;;;;;;;;;;24.80;74.30;;;;;;5118841;27;19927;-79
2022/06/12 11:39:41;;;;;;;;;;;24.60;73.20;;;;;;5126602;27;19923;-78
2022/06/12 11:42:18;;;;;;;;;;;24.40;74.90;;;;;;5129865;27;19930;-78
2022/06/12 11:44:46;;;;;;;;;;;24.20;75.90;;;;;;5129508;27;19927;-78
2022/06/12 11:47:12;;;;;;;;;;;24.20;73.90;;;;;;5129775;27;19923;-78
2022/06/12 11:50:03;;;;;;;;;;;24.20;72.40;;;;;;5130704;27;20274;-78
2022/06/12 11:52:47;;;;;;;;;;;24.20;73.80;;;;;;5125161;27;19923;-79
2022/06/12 11:55:17;;;;;;;;;;;24.20;75.30;;;;;;5129849;27;20366;-78
2022/06/12 11:57:52;;;;;;;;;;;24.40;73.30;;;;;;5129122;27;19976;-78
2022/06/12 12:00:20;;;;;;;;;;;24.40;74.70;;;;;;5130751;27;19984;-79
2022/06/12 12:02:55;;;;;;;;;;;24.30;73.30;;;;;;5129051;27;19976;-78
2022/06/12 12:05:20;;;;;;;;;;;24.10;73.30;;;;;;5129332;27;19987;-79
2022/06/12 12:07:58;;;;;;;;;;;24.20;73.90;;;;;;5129863;27;20327;-78
2022/06/12 12:10:28;;;;;;;;;;;24.50;76.90;;;;;;5125178;27;19962;-79
2022/06/12 12:12:58;;;;;;;;;;;25.00;76.50;;;;;;5110495;28;20297;-79
2022/06/12 12:15:26;;;;;;;;;;;25.10;72.30;;;;;;5126956;28;19924;-79
2022/06/12 12:17:53;;;;;;;;;;;25.00;72.10;;;;;;5130894;27;19930;-79
2022/06/12 12:20:19;;;;;;;;;;;24.90;69.70;;;;;;5132591;27;19924;-78
2022/06/12 12:22:47;;;;;;;;;;;24.90;72.20;;;;;;5134012;27;19928;-78
2022/06/12 12:25:19;;;;;;;;;;;24.90;70.60;;;;;;5134925;27;19947;-79
2022/06/12 12:27:50;;;;;;;;;;;24.60;70.40;;;;;;5133540;27;19934;-79
2022/06/12 12:30:21;;;;;;;;;;;24.30;72.00;;;;;;5133384;27;19923;-78
2022/06/12 12:32:48;;;;;;;;;;;24.10;73.10;;;;;;5119725;27;19970;-79
2022/06/12 12:41:11;;;;;;;;;;;24.30;72.00;;;;;;5134753;27;19923;-79
2022/06/12 12:43:29;;;;;;;;;;;24.70;70.20;;;;;;5134742;27;19923;-75
2022/06/12 12:46:03;;;;;;;;;;;24.70;71.50;;;;;;5134017;27;20399;-77
2022/06/12 12:48:38;;;;;;;;;;;24.80;68.90;;;;;;5118070;27;19924;-78
2022/06/12 12:51:03;;;;;;;;;;;25.10;69.60;;;;;;5132840;27;19931;-79
2022/06/12 12:53:33;;;;;;;;;;;25.20;69.90;;;;;;5132414;27;20299;-78
2022/06/12 12:55:58;;;;;;;;;;;25.40;69.20;;;;;;5128300;27;20018;-78
2022/06/12 12:58:24;;;;;;;;;;;25.40;68.40;;;;;;5131563;27;20044;-78
2022/06/12 13:01:00;;;;;;;;;;;25.40;69.00;;;;;;5123508;27;20418;-78
2022/06/12 13:03:25;;;;;;;;;;;25.40;66.30;;;;;;5116538;27;19951;-78
2022/06/12 13:05:56;;;;;;;;;;;25.40;66.00;;;;;;5124802;27;20308;-79
2022/06/12 13:08:25;;;;;;;;;;;25.40;64.40;;;;;;5132389;27;20022;-78
2022/06/12 13:10:59;;;;;;;;;;;25.10;65.10;;;;;;5121301;27;20603;-78
2022/06/12 13:13:31;;;;;;;;;;;24.70;62.90;;;;;;5115441;27;19943;-79
2022/06/12 13:16:05;;;;;;;;;;;24.60;63.40;;;;;;5132697;27;19943;-78
2022/06/12 13:18:50;;;;;;;;;;;24.60;64.30;;;;;;5132715;27;19942;-79
2022/06/12 13:21:31;;;;;;;;;;;24.70;65.00;;;;;;5122173;27;19930;-79
2022/06/12 13:24:16;;;;;;;;;;;24.90;65.60;;;;;;5127577;27;20043;-79
2022/06/12 13:26:42;;;;;;;;;;;24.80;70.00;;;;;;5122284;27;19930;-78
2022/06/12 13:29:13;;;;;;;;;;;24.60;74.20;;;;;;5116826;27;20030;-79
2022/06/12 13:31:38;;;;;;;;;;;24.70;75.10;;;;;;5131149;27;20033;-78
2022/06/12 13:34:04;;;;;;;;;;;24.80;74.40;;;;;;5115588;27;20369;-78
2022/06/12 13:36:37;;;;;;;;;;;24.90;75.10;;;;;;5122342;27;20364;-79
2022/06/12 13:39:04;;;;;;;;;;;24.80;74.80;;;;;;5120843;27;19929;-78
2022/06/12 13:41:43;;;;;;;;;;;24.40;74.90;;;;;;5129771;27;19970;-79
2022/06/12 13:44:35;;;;;;;;;;;24.20;75.10;;;;;;5127327;27;19923;-79
2022/06/12 13:47:16;;;;;;;;;;;23.80;75.70;;;;;;5127894;27;19967;-79
2022/06/12 13:49:45;;;;;;;;;;;24.00;76.90;;;;;;5132362;27;19955;-78
2022/06/12 13:52:16;;;;;;;;;;;24.10;78.60;;;;;;5123746;27;19931;-79
2022/06/12 13:54:43;;;;;;;;;;;24.40;78.30;;;;;;5124528;27;20006;-79
2022/06/12 13:57:14;;;;;;;;;;;24.70;76.50;;;;;;5118198;27;19928;-78
2022/06/12 13:59:43;;;;;;;;;;;24.80;78.00;;;;;;5131729;27;20010;-79
2022/06/12 14:02:17;;;;;;;;;;;24.70;77.80;;;;;;5133366;27;19993;-79
2022/06/12 14:04:50;;;;;;;;;;;24.40;77.10;;;;;;5130844;27;19930;-79
2022/06/12 14:07:16;;;;;;;;;;;24.30;78.20;;;;;;5118848;27;20416;-78
2022/06/12 14:09:42;;;;;;;;;;;24.50;77.90;;;;;;5132712;27;19927;-79
2022/06/12 14:12:11;;;;;;;;;;;24.70;76.90;;;;;;5133244;27;19923;-78
2022/06/12 14:14:38;;;;;;;;;;;24.50;75.30;;;;;;5112823;27;19924;-78
2022/06/12 14:17:15;;;;;;;;;;;24.00;75.60;;;;;;5132539;27;20293;-78
2022/06/12 14:19:40;;;;;;;;;;;23.40;76.20;;;;;;5121836;27;19927;-79
2022/06/12 14:22:15;;;;;;;;;;;23.00;77.20;;;;;;5129236;27;19931;-78
2022/06/12 14:24:41;;;;;;;;;;;22.80;79.70;;;;;;5130710;27;19928;-78
2022/06/12 14:27:24;;;;;;;;;;;22.90;82.20;;;;;;5117641;27;20293;-78
2022/06/12 14:29:50;;;;;;;;;;;23.10;81.50;;;;;;5131042;27;19930;-78
2022/06/12 14:32:29;;;;;;;;;;;23.00;80.60;;;;;;5132558;27;19923;-78
2022/06/12 14:34:59;;;;;;;;;;;23.30;82.00;;;;;;5131989;27;20014;-79
2022/06/12 14:37:26;;;;;;;;;;;23.80;80.50;;;;;;5131521;27;20428;-78
2022/06/12 14:39:51;;;;;;;;;;;23.70;80.10;;;;;;5130628;27;20095;-78
2022/06/12 14:42:18;;;;;;;;;;;23.60;80.60;;;;;;5130794;27;20032;-79
2022/06/12 14:44:44;;;;;;;;;;;23.80;81.90;;;;;;5123479;27;19924;-78
2022/06/12 14:47:17;;;;;;;;;;;24.20;81.90;;;;;;5127663;27;19927;-79
2022/06/12 14:49:43;;;;;;;;;;;24.60;80.40;;;;;;5130960;27;19923;-79
2022/06/12 14:52:08;;;;;;;;;;;24.20;78.60;;;;;;5131157;27;19959;-78